Terminal Aerodrome Forecast
Issued by NWS

Home | Current Version | Previous Version | Text Only | Print | Product List | Glossary On
Versions: 1 2 3 4 5 6 7 8 9 10 11 12 13 14 15 16 17 18 19 20
000
FTUS43 KDVN 011100
TAFBRL
TAF
KBRL 011136Z 0112/0212 12008KT P6SM SCT080
     FM011500 16008KT P6SM SCT040 OVC070
      TEMPO 0115/0118 4SM SHRA BR BKN025
     FM011800 17009KT P6SM VCSH BKN040
     FM012200 14007KT P6SM OVC050
      TEMPO 0122/0202 4SM TSRA BR BKN025CB
     FM020200 17007KT 4SM SHRA BR OVC025=

USA.gov is the U.S. government's official web portal to all federal, state and local government web resources and services.